Facebook Twitter YouTube


Racing Home >Top Performers > trot

TOP PERFORMERS IN 2021

Trotters

Click on a link below to see the top 50 Trotters in that category. Only North American racing statistics are shown, with all earnings expressed in US currency.

  All Ages Earnings Wins Record
  2-Year-Olds Earnings Wins Record
  3-Year-Olds Earnings Wins Record
  Aged Earnings Wins Record

2-year-old Trotters by Record - 2021

Click on a column heading to sort these 50 rows only. To see a report of the top horses using other categories, please select a link at the top of the page.

Horse Name Age Sex Gait Sts 1st 2nd 3rd Earnings Record Size
DATE NIGHT 2 M T 7 7 0 0 $143,325 1:50.4 m
SELFIE QUEEN 2 M T 10 5 1 1 $218,540 1:51.2 m
RAISED BY LINDY 2 M T 8 4 1 0 $147,743 1:51.3 m
BRANDED BY LINDY 2 H T 9 7 1 0 $153,350 1:52.0 m
VENERABLE 2 M T 8 8 0 0 $861,945 1:52.0 m
JIGGY JOG S 2 M T 8 2 4 0 $130,880 1:52.2 m
LILBITALEXIS 2 M T 8 6 1 0 $133,862 1:52.2 m
REBUFF 2 H T 9 2 2 1 $131,595 1:52.2 m
DOUBLE DECEIVER 2 G T 8 4 3 0 $218,040 1:52.3 m
KING OF THE NORTH 2 H T 9 6 1 1 $577,665 1:52.4 m
SLAY 2 H T 4 2 0 2 $48,506 1:52.4 m
JOVIALITY S 2 M T 9 7 1 0 $363,748 1:53.0 m
PERICULUM 2 H T 9 2 2 1 $86,406 1:53.1 m
STRIDE THE HILL 2 H T 8 1 2 3 $58,850 1:53.1 m
DOVER IN MOTION 2 G T 9 8 0 0 $309,400 1:53.2 s
JAYA BAE 2 M T 2 2 0 0 $10,000 1:53.2 m
TEMPORAL HANOVER 2 H T 10 5 2 0 $198,666 1:53.2 m
GRACELYN HANOVER 2 M T 6 2 3 0 $43,350 1:53.3 m
KEG STAND 2 H T 10 3 2 2 $144,766 1:53.3 m
GIGONDAS 2 H T 8 2 1 0 $85,000 1:53.4 m
GOLDEN WALL AS 2 H T 9 3 2 1 $55,780 1:53.4 m
PALERMO HANOVER 2 M T 9 2 1 2 $107,633 1:53.4 m
S I P 2 H T 11 4 1 0 $262,682 1:53.4 m
DREAMONHIGH 2 M T 8 4 2 0 $238,816 1:54.0 f
RYDER IN THE SKY 2 M T 8 1 1 1 $16,595 1:54.0 m
TESTING TESTING 2 H T 6 3 0 1 $30,525 1:54.0 m
BRICKHOUSE BABE 2 M T 10 4 2 0 $153,177 1:54.1 m
MISSWALNER FASHION 2 M T 6 3 1 0 $61,712 1:54.1 m
STIFF DRINK 2 G T 1 0 0 0 $0 Q 1:54.1 m
WALLABEE 2 M T 6 1 3 1 $38,388 1:54.1 m
WORLD AT WAR DEO 2 H T 10 4 3 1 $97,697 1:54.1 m
ADARE CASTLE 2 M T 9 7 2 0 $387,818 1:54.2 s
PONDA ADVENTURE 2 G T 10 8 2 0 $271,468 1:54.2 s
AMERICAN BEAUTY 2 M T 11 2 2 1 $78,824 1:54.2 m
LAWS OF MOTION 2 G T 5 1 0 0 $16,950 1:54.2 m
MON CHEVAL 2 M T 8 3 1 0 $171,362 Q 1:54.2 m
TWIN B ARCHIE 2 G T 10 4 3 1 $227,680 1:54.3 s
AGGIORNAMENTO 2 G T 4 4 0 0 $27,550 1:54.3 m
EASY RIDER 2 H T 6 1 1 0 $15,000 1:54.3 m
GABBYS BIT COIN 2 G T 5 3 1 1 $110,000 1:54.4 f
GLOBAL PANDEMIC 2 H T 11 4 2 4 $212,174 1:54.4 f
BARE MY SOUL 2 M T 7 1 0 2 $33,914 1:54.4 s
DELILAH HANOVER 2 M T 10 2 1 3 $142,504 1:54.4 m
LETSDOIT S 2 H T 8 2 3 2 $130,033 1:54.4 m
MAJESTIC J 2 H T 10 2 2 2 $88,480 1:54.4 m
PAULINE HANOVER 2 M T 9 2 4 1 $42,670 1:54.4 m
ROBERTSIN 2 G T 7 2 3 0 $40,434 1:54.4 m
SONNY'S MONI 2 H T 2 0 0 1 $1,200 Q 1:54.4 m
PAROLA HANOVER 2 H T 10 3 3 1 $179,425 1:55.0 f
M-M'S DREAM 2 M T 8 6 1 0 $268,462 1:55.0 s
THREEPOINTBLUECHIP 2 H T 4 2 0 0 $12,245 1:55.0 s
FAMOUS FATHER 2 H T 6 1 0 1 $13,589 1:55.0 m
FAST AS THE WIND 2 H T 10 2 0 2 $68,813 1:55.0 m
Updated: 10/20/2021

Looking for even more information? Pathway has expanded reports on every harness racing participant in North America, as well as online industry leaders statistics updated daily. Set up your free USTA Account at myaccount.ustrotting.com which will give you access to Pathway and the expanded Statistics reporting area. For more information on Pathway, please visit pathway.ustrotting.com.

Comments or questions on these reports, please contact webmaster@ustrotting.com.